Главная страница
METAR-TAF:

METAR-TAF

Аэропорты :

Dease Lake, Британская Колумбия, Канада

широта: 58-25-20N, долгота: 130-01-53W, высота над уровнем моря: 803 м

Текущие метеонаблюдения

Эта сводка был подготовлена 25 минут назад, в 04:00 UTC
Ветер 2 Узел переменных направлений
Температура -8°C
Влажность 92%
Давление 1010 hPa
Видимость: 1.6 км
небольшой снег

METAR: CYDL 230400Z AUTO VRB02KT 1SM -SN VV012 M08/M09 A2982 RMK SLP156

Время: 20:25 (04:25 UTC)

Прогноз

Эта сводка был подготовлена 2 часа и 58 минут назад, в 01:27 UTC
Прогноз действительный с 23-го 01 UTC до 23-го 03 UTC
Ветер 3 Узел переменных направлений
Видимость: 10 км
Отдельные облака на высоте 2000 фута
Сплошная облачность на высоте 4000 фута
временами
С 23-го 01 UTC до 23-го 03 UTC
Видимость: 3.2 км
Сплошная облачность на высоте 2000 фута
небольшой снег

TAF: CYDL 230127Z 2301/2303 VRB03KT P6SM SCT020 OVC040 TEMPO 2301/2303 2SM -SN OVC020 RMK FCST BASED ON AUTO OBS. NXT FCST WILL BE ISSUED AT 231645Z

Метеонаблюдения и прогнозы для более 4000 аэропортов (сводки METAR и TAF).

Имеющиеся станции представлены на карте желтыми и красными точками.

Чтобы увидеть название станции, наведите на нее мышь.

Затем щелкните, чтобы увидеть метеонаблюдения и метеопрогнозы.

Управление картой: чтобы увеличить масштаб, щелкните зеленые кнопки с черным крестиком; чтобы уменьшить масштаб, щелкните зеленую кнопку с тире; для просмотра соседних карт щелкайте зеленые стрелки.


METAR-TAF: